Terminal Aerodrome Forecast
Issued by NWS

Home | Current Version | Previous Version | Text Only | Print | Product List | Glossary On
Versions: 1 2 3 4 5 6 7 8 9 10 11 12 13 14 15 16 17 18 19 20 21 22 23 24
000
FTUS45 KLKN 161123
TAFELY
TAF
KELY 161123Z 1612/1712 18007KT P6SM BKN100
     FM161500 VRB05KT P6SM OVC090
     FM162000 06009KT P6SM VCTS SCT070CB BKN150
      TEMPO 1620/1624 VRB20G30KT -TSRA BKN070CB
     FM170200 18007KT P6SM VCSH SCT035 BKN060=

USA.gov is the U.S. government's official web portal to all federal, state and local government web resources and services.